PWSweather.com
Personal Weather Stations
Station Observations
MAHIABEACH
Mahia Beach, Mahia Peninsula Hawkes Bay -NZ 4108

Mahia BeachMahia Peninsula Hawkes Bay -NZ 4108

Lat: -39.087594, Lon: 177.87261128

Elevation: 20

Station Type: ScientificSales WS1093

http://wairoa.net/mahia/index.htm

Latest ConditionsUpdated 7:00:05 PM GMT+12:12 Wednesday, Jul 30, 2014
Currently Today's Max Today's Min Today's Average
Temperature 53.4°F11.9°C 68.4°F20.2°C 53.2°F11.8°C 58.6°F14.8°C
Dew Point 47.4°F8.6°C 55.0°F12.8°C 47.4°F8.6°C 51.4°F10.8°C
Winds 1.0 mph E1.6 kmh E 8.3 mph NW13.4 kmh NW - 3.8 mph 6.1 kmh
Wind Gusts 3.8 mph6.1 kmh 17.4 mph28.0 kmh - -
Humidity 80% 95% 54% 78%
Pressure 30.01 in1016.3 mb 30.12 in1020.0 mb 29.97 in1014.9 mb -
Hour Temp Dew Point Humidity Winds Wind Gusts Pressure Precip Precip Rate Daily Precip Total
07:00 PM 53.4°F11.9°C 47.4°F8.6°C 80% 1.0 mph E1.6 kmh E 3.8 mph6.1 kmh 30.01 in1016.3 mb 0.00 in0.0 mm 0.00 in/hr0.0 mm/hr 0.00 in0.0 mm
06:45 PM 54.1°F12.3°C 47.8°F8.8°C 79% 1.5 mph E2.4 kmh E 4.5 mph7.2 kmh 30.01 in1016.3 mb 0.00 in0.0 mm 0.00 in/hr0.0 mm/hr 0.00 in0.0 mm
06:30 PM 55.4°F13.0°C 48.0°F8.9°C 76% 0.6 mph NW1.0 kmh NW 5.4 mph8.7 kmh 30.01 in1016.3 mb 0.00 in0.0 mm 0.00 in/hr0.0 mm/hr 0.00 in0.0 mm
06:15 PM 54.0°F12.2°C 47.9°F8.8°C 80% 1.2 mph E1.9 kmh E 4.5 mph7.2 kmh 30.00 in1015.9 mb 0.00 in0.0 mm 0.00 in/hr0.0 mm/hr 0.00 in0.0 mm
06:00 PM 55.6°F13.1°C 48.5°F9.2°C 77% 0.4 mph E0.6 kmh E 2.2 mph3.5 kmh 30.00 in1015.9 mb 0.00 in0.0 mm 0.00 in/hr0.0 mm/hr 0.00 in0.0 mm
05:45 PM 57.7°F14.3°C 48.4°F9.1°C 71% 0.9 mph NNW1.4 kmh NNW 6.9 mph11.1 kmh 29.98 in1015.2 mb 0.00 in0.0 mm 0.00 in/hr0.0 mm/hr 0.00 in0.0 mm
05:30 PM 59.4°F15.2°C 49.2°F9.6°C 69% 1.4 mph NW2.3 kmh NW 3.8 mph6.1 kmh 29.98 in1015.2 mb 0.00 in0.0 mm 0.00 in/hr0.0 mm/hr 0.00 in0.0 mm
05:15 PM 59.7°F15.4°C 49.2°F9.6°C 68% 1.7 mph NW2.7 kmh NW 5.4 mph8.7 kmh 29.99 in1015.6 mb 0.00 in0.0 mm 0.00 in/hr0.0 mm/hr 0.00 in0.0 mm
05:00 PM 60.6°F15.9°C 49.6°F9.8°C 67% 0.2 mph WSW0.3 kmh WSW 2.2 mph3.5 kmh 29.98 in1015.2 mb 0.00 in0.0 mm 0.00 in/hr0.0 mm/hr 0.00 in0.0 mm
04:45 PM 62.8°F17.1°C 49.6°F9.8°C 62% 4.4 mph N7.1 kmh N 9.8 mph15.8 kmh 29.98 in1015.2 mb 0.00 in0.0 mm 0.00 in/hr0.0 mm/hr 0.00 in0.0 mm
04:30 PM 64.0°F17.8°C 50.3°F10.2°C 61% 3.5 mph NW5.6 kmh NW 9.2 mph14.8 kmh 29.97 in1014.9 mb 0.00 in0.0 mm 0.00 in/hr0.0 mm/hr 0.00 in0.0 mm
04:15 PM 64.6°F18.1°C 50.4°F10.2°C 60% 4.7 mph NW7.6 kmh NW 13.6 mph21.9 kmh 29.98 in1015.2 mb 0.00 in0.0 mm 0.00 in/hr0.0 mm/hr 0.00 in0.0 mm
04:00 PM 64.8°F18.2°C 51.9°F11.1°C 63% 4.9 mph NW7.9 kmh NW 13.0 mph20.9 kmh 29.99 in1015.6 mb 0.00 in0.0 mm 0.00 in/hr0.0 mm/hr 0.00 in0.0 mm
03:45 PM 64.9°F18.3°C 51.6°F10.9°C 62% 5.1 mph NW8.2 kmh NW 9.8 mph15.8 kmh 29.98 in1015.2 mb 0.00 in0.0 mm 0.00 in/hr0.0 mm/hr 0.00 in0.0 mm
03:30 PM 64.8°F18.2°C 50.6°F10.3°C 60% 7.3 mph NW11.7 kmh NW 13.0 mph20.9 kmh 29.99 in1015.6 mb 0.00 in0.0 mm 0.00 in/hr0.0 mm/hr 0.00 in0.0 mm
03:15 PM 64.0°F17.8°C 50.3°F10.2°C 61% 6.8 mph NW10.9 kmh NW 13.0 mph20.9 kmh 29.99 in1015.6 mb 0.00 in0.0 mm 0.00 in/hr0.0 mm/hr 0.00 in0.0 mm
03:00 PM 66.4°F19.1°C 50.7°F10.4°C 57% 4.9 mph NW7.9 kmh NW 9.8 mph15.8 kmh 30.00 in1015.9 mb 0.00 in0.0 mm 0.00 in/hr0.0 mm/hr 0.00 in0.0 mm
02:45 PM 66.0°F18.9°C 50.8°F10.4°C 58% 7.0 mph NW11.3 kmh NW 15.2 mph24.5 kmh 30.00 in1015.9 mb 0.00 in0.0 mm 0.00 in/hr0.0 mm/hr 0.00 in0.0 mm
02:30 PM 66.4°F19.1°C 51.2°F10.7°C 58% 7.2 mph NW11.6 kmh NW 14.5 mph23.3 kmh 30.00 in1015.9 mb 0.00 in0.0 mm 0.00 in/hr0.0 mm/hr 0.00 in0.0 mm
02:15 PM 66.2°F19.0°C 50.5°F10.3°C 57% 8.3 mph NW13.4 kmh NW 16.8 mph27.0 kmh 30.00 in1015.9 mb 0.00 in0.0 mm 0.00 in/hr0.0 mm/hr 0.00 in0.0 mm
02:00 PM 67.3°F19.6°C 51.1°F10.6°C 56% 6.4 mph NW10.3 kmh NW 17.4 mph28.0 kmh 30.00 in1015.9 mb 0.00 in0.0 mm 0.00 in/hr0.0 mm/hr 0.00 in0.0 mm
01:45 PM 68.2°F20.1°C 51.9°F11.1°C 56% 5.2 mph NW8.4 kmh NW 10.7 mph17.2 kmh 30.00 in1015.9 mb 0.00 in0.0 mm 0.00 in/hr0.0 mm/hr 0.00 in0.0 mm
01:30 PM 68.4°F20.2°C 52.6°F11.4°C 57% 4.3 mph NW6.9 kmh NW 13.0 mph20.9 kmh 30.00 in1015.9 mb 0.00 in0.0 mm 0.00 in/hr0.0 mm/hr 0.00 in0.0 mm
01:15 PM 68.0°F20.0°C 50.8°F10.4°C 54% 1.4 mph NNW2.3 kmh NNW 8.3 mph13.4 kmh 30.00 in1015.9 mb 0.00 in0.0 mm 0.00 in/hr0.0 mm/hr 0.00 in0.0 mm
01:00 PM 62.2°F16.8°C 53.5°F11.9°C 73% 3.0 mph NE4.8 kmh NE 7.6 mph12.2 kmh 30.02 in1016.6 mb 0.00 in0.0 mm 0.00 in/hr0.0 mm/hr 0.00 in0.0 mm
12:45 PM 63.5°F17.5°C 53.6°F12.0°C 70% 2.4 mph NE3.9 kmh NE 9.2 mph14.8 kmh 30.03 in1016.9 mb 0.00 in0.0 mm 0.00 in/hr0.0 mm/hr 0.00 in0.0 mm
12:30 PM 64.2°F17.9°C 55.0°F12.8°C 72% 4.7 mph ENE7.6 kmh ENE 11.4 mph18.3 kmh 30.04 in1017.3 mb 0.00 in0.0 mm 0.00 in/hr0.0 mm/hr 0.00 in0.0 mm
12:15 PM 64.6°F18.1°C 53.8°F12.1°C 68% 4.7 mph NE7.6 kmh NE 11.4 mph18.3 kmh 30.04 in1017.3 mb 0.00 in0.0 mm 0.00 in/hr0.0 mm/hr 0.00 in0.0 mm
12:00 PM 64.6°F18.1°C 53.8°F12.1°C 68% 5.1 mph NE8.2 kmh NE 12.1 mph19.5 kmh 30.04 in1017.3 mb 0.00 in0.0 mm 0.00 in/hr0.0 mm/hr 0.00 in0.0 mm
11:45 AM 64.4°F18.0°C 53.2°F11.8°C 67% 5.1 mph NE8.2 kmh NE 13.0 mph20.9 kmh 30.05 in1017.6 mb 0.00 in0.0 mm 0.00 in/hr0.0 mm/hr 0.00 in0.0 mm
11:30 AM 63.3°F17.4°C 54.5°F12.5°C 73% 3.9 mph NE6.3 kmh NE 8.3 mph13.4 kmh 30.06 in1017.9 mb 0.00 in0.0 mm 0.00 in/hr0.0 mm/hr 0.00 in0.0 mm
11:15 AM 62.4°F16.9°C 54.0°F12.2°C 74% 4.1 mph NE6.6 kmh NE 11.4 mph18.3 kmh 30.07 in1018.3 mb 0.00 in0.0 mm 0.00 in/hr0.0 mm/hr 0.00 in0.0 mm
11:00 AM 60.6°F15.9°C 53.4°F11.9°C 77% 3.3 mph NE5.3 kmh NE 7.6 mph12.2 kmh 30.07 in1018.3 mb 0.00 in0.0 mm 0.00 in/hr0.0 mm/hr 0.00 in0.0 mm
10:45 AM 60.3°F15.7°C 52.7°F11.5°C 76% 4.3 mph NNE6.9 kmh NNE 10.7 mph17.2 kmh 30.07 in1018.3 mb 0.00 in0.0 mm 0.00 in/hr0.0 mm/hr 0.00 in0.0 mm
10:30 AM 61.3°F16.3°C 52.3°F11.3°C 72% 3.5 mph NE5.6 kmh NE 9.8 mph15.8 kmh 30.08 in1018.6 mb 0.00 in0.0 mm 0.00 in/hr0.0 mm/hr 0.00 in0.0 mm
10:15 AM 59.4°F15.2°C 52.2°F11.2°C 77% 2.8 mph N4.5 kmh N 9.2 mph14.8 kmh 30.08 in1018.6 mb 0.00 in0.0 mm 0.00 in/hr0.0 mm/hr 0.00 in0.0 mm
10:00 AM 58.8°F14.9°C 52.3°F11.3°C 79% 3.4 mph N5.5 kmh N 9.8 mph15.8 kmh 30.08 in1018.6 mb 0.00 in0.0 mm 0.00 in/hr0.0 mm/hr 0.00 in0.0 mm
09:45 AM 58.5°F14.7°C 52.3°F11.3°C 80% 4.1 mph NE6.6 kmh NE 9.8 mph15.8 kmh 30.08 in1018.6 mb 0.00 in0.0 mm 0.00 in/hr0.0 mm/hr 0.00 in0.0 mm
09:30 AM 57.9°F14.4°C 51.1°F10.6°C 78% 2.6 mph NNE4.2 kmh NNE 8.3 mph13.4 kmh 30.08 in1018.6 mb 0.00 in0.0 mm 0.00 in/hr0.0 mm/hr 0.00 in0.0 mm
09:15 AM 57.6°F14.2°C 50.8°F10.4°C 78% 2.6 mph NE4.2 kmh NE 6.0 mph9.7 kmh 30.08 in1018.6 mb 0.00 in0.0 mm 0.00 in/hr0.0 mm/hr 0.00 in0.0 mm
09:00 AM 57.0°F13.9°C 50.6°F10.3°C 79% 4.0 mph NNE6.4 kmh NNE 12.1 mph19.5 kmh 30.07 in1018.3 mb 0.00 in0.0 mm 0.00 in/hr0.0 mm/hr 0.00 in0.0 mm
08:30 AM 56.5°F13.6°C 50.7°F10.4°C 81% 4.1 mph NE6.6 kmh NE 13.0 mph20.9 kmh 30.07 in1018.3 mb 0.00 in0.0 mm 0.00 in/hr0.0 mm/hr 0.00 in0.0 mm
08:15 AM 56.1°F13.4°C 51.4°F10.8°C 84% 4.4 mph NE7.1 kmh NE 10.7 mph17.2 kmh 30.07 in1018.3 mb 0.00 in0.0 mm 0.00 in/hr0.0 mm/hr 0.00 in0.0 mm
08:00 AM 55.8°F13.2°C 51.0°F10.6°C 84% 4.3 mph NE6.9 kmh NE 9.8 mph15.8 kmh 30.07 in1018.3 mb 0.00 in0.0 mm 0.00 in/hr0.0 mm/hr 0.00 in0.0 mm
07:45 AM 55.2°F12.9°C 51.7°F10.9°C 88% 4.1 mph NE6.6 kmh NE 9.8 mph15.8 kmh 30.06 in1017.9 mb 0.00 in0.0 mm 0.00 in/hr0.0 mm/hr 0.00 in0.0 mm
07:30 AM 55.0°F12.8°C 52.2°F11.2°C 90% 3.6 mph ENE5.8 kmh ENE 9.8 mph15.8 kmh 30.06 in1017.9 mb 0.00 in0.0 mm 0.00 in/hr0.0 mm/hr 0.00 in0.0 mm
07:15 AM 55.8°F13.2°C 51.3°F10.7°C 85% 3.2 mph NE5.1 kmh NE 7.6 mph12.2 kmh 30.07 in1018.3 mb 0.00 in0.0 mm 0.00 in/hr0.0 mm/hr 0.00 in0.0 mm
07:00 AM 55.8°F13.2°C 52.0°F11.1°C 87% 4.6 mph NE7.4 kmh NE 10.7 mph17.2 kmh 30.07 in1018.3 mb 0.00 in0.0 mm 0.00 in/hr0.0 mm/hr 0.00 in0.0 mm
06:45 AM 55.4°F13.0°C 51.9°F11.1°C 88% 5.2 mph NE8.4 kmh NE 10.7 mph17.2 kmh 30.06 in1017.9 mb 0.00 in0.0 mm 0.00 in/hr0.0 mm/hr 0.00 in0.0 mm
06:30 AM 55.6°F13.1°C 51.8°F11.0°C 87% 4.0 mph NE6.4 kmh NE 11.4 mph18.3 kmh 30.05 in1017.6 mb 0.00 in0.0 mm 0.00 in/hr0.0 mm/hr 0.00 in0.0 mm
06:15 AM 55.4°F13.0°C 51.6°F10.9°C 87% 3.3 mph NE5.3 kmh NE 9.8 mph15.8 kmh 30.06 in1017.9 mb 0.00 in0.0 mm 0.00 in/hr0.0 mm/hr 0.00 in0.0 mm
06:00 AM 54.9°F12.7°C 52.0°F11.1°C 90% 4.0 mph NE6.4 kmh NE 9.8 mph15.8 kmh 30.05 in1017.6 mb 0.00 in0.0 mm 0.00 in/hr0.0 mm/hr 0.00 in0.0 mm
05:45 AM 54.1°F12.3°C 52.2°F11.2°C 93% 3.0 mph NE4.8 kmh NE 7.6 mph12.2 kmh 30.05 in1017.6 mb 0.00 in0.0 mm 0.00 in/hr0.0 mm/hr 0.00 in0.0 mm
05:30 AM 54.3°F12.4°C 52.3°F11.3°C 93% 2.5 mph NE4.0 kmh NE 7.6 mph12.2 kmh 30.05 in1017.6 mb 0.00 in0.0 mm 0.00 in/hr0.0 mm/hr 0.00 in0.0 mm
05:15 AM 54.7°F12.6°C 52.1°F11.2°C 91% 3.5 mph NE5.6 kmh NE 9.2 mph14.8 kmh 30.04 in1017.3 mb 0.00 in0.0 mm 0.00 in/hr0.0 mm/hr 0.00 in0.0 mm
05:00 AM 55.2°F12.9°C 52.3°F11.3°C 90% 5.1 mph NE8.2 kmh NE 9.8 mph15.8 kmh 30.05 in1017.6 mb 0.00 in0.0 mm 0.00 in/hr0.0 mm/hr 0.00 in0.0 mm
04:45 AM 55.4°F13.0°C 52.2°F11.2°C 89% 6.2 mph NE10.0 kmh NE 13.6 mph21.9 kmh 30.04 in1017.3 mb 0.00 in0.0 mm 0.00 in/hr0.0 mm/hr 0.00 in0.0 mm
04:30 AM 55.0°F12.8°C 52.5°F11.4°C 91% 6.2 mph NE10.0 kmh NE 13.6 mph21.9 kmh 30.04 in1017.3 mb 0.00 in0.0 mm 0.00 in/hr0.0 mm/hr 0.00 in0.0 mm
04:15 AM 54.9°F12.7°C 52.9°F11.6°C 93% 6.8 mph NE10.9 kmh NE 14.5 mph23.3 kmh 30.05 in1017.6 mb 0.00 in0.0 mm 0.00 in/hr0.0 mm/hr 0.00 in0.0 mm
04:00 AM 54.7°F12.6°C 53.3°F11.8°C 95% 6.6 mph NE10.6 kmh NE 13.0 mph20.9 kmh 30.05 in1017.6 mb 0.00 in0.0 mm 0.00 in/hr0.0 mm/hr 0.00 in0.0 mm
03:45 AM 54.5°F12.5°C 52.5°F11.4°C 93% 5.6 mph NE9.0 kmh NE 16.8 mph27.0 kmh 30.06 in1017.9 mb 0.00 in0.0 mm 0.00 in/hr0.0 mm/hr 0.00 in0.0 mm
03:30 AM 54.5°F12.5°C 51.9°F11.1°C 91% 5.5 mph NE8.9 kmh NE 13.0 mph20.9 kmh 30.07 in1018.3 mb 0.00 in0.0 mm 0.00 in/hr0.0 mm/hr 0.00 in0.0 mm
03:15 AM 54.1°F12.3°C 51.9°F11.1°C 92% 4.4 mph NE7.1 kmh NE 9.2 mph14.8 kmh 30.08 in1018.6 mb 0.00 in0.0 mm 0.00 in/hr0.0 mm/hr 0.00 in0.0 mm
03:00 AM 54.3°F12.4°C 52.3°F11.3°C 93% 4.9 mph NE7.9 kmh NE 12.1 mph19.5 kmh 30.08 in1018.6 mb 0.00 in0.0 mm 0.00 in/hr0.0 mm/hr 0.00 in0.0 mm
02:45 AM 54.0°F12.2°C 52.3°F11.3°C 94% 4.3 mph NE6.9 kmh NE 10.7 mph17.2 kmh 30.08 in1018.6 mb 0.00 in0.0 mm 0.00 in/hr0.0 mm/hr 0.00 in0.0 mm
02:30 AM 54.1°F12.3°C 52.2°F11.2°C 93% 5.0 mph NE8.0 kmh NE 12.1 mph19.5 kmh 30.09 in1019.0 mb 0.00 in0.0 mm 0.00 in/hr0.0 mm/hr 0.00 in0.0 mm
02:15 AM 54.1°F12.3°C 52.2°F11.2°C 93% 4.3 mph NE6.9 kmh NE 10.7 mph17.2 kmh 30.09 in1019.0 mb 0.00 in0.0 mm 0.00 in/hr0.0 mm/hr 0.00 in0.0 mm
02:00 AM 54.3°F12.4°C 52.3°F11.3°C 93% 4.3 mph NE6.9 kmh NE 9.8 mph15.8 kmh 30.11 in1019.6 mb 0.00 in0.0 mm 0.00 in/hr0.0 mm/hr 0.00 in0.0 mm
01:45 AM 54.0°F12.2°C 52.3°F11.3°C 94% 4.2 mph NE6.8 kmh NE 10.7 mph17.2 kmh 30.10 in1019.3 mb 0.00 in0.0 mm 0.00 in/hr0.0 mm/hr 0.00 in0.0 mm
01:30 AM 53.2°F11.8°C 51.9°F11.1°C 95% 1.6 mph NE2.6 kmh NE 6.0 mph9.7 kmh 30.11 in1019.6 mb 0.00 in0.0 mm 0.00 in/hr0.0 mm/hr 0.00 in0.0 mm
01:15 AM 53.2°F11.8°C 50.7°F10.4°C 91% 0.4 mph NE0.6 kmh NE 3.1 mph5.0 kmh 30.11 in1019.6 mb 0.00 in0.0 mm 0.00 in/hr0.0 mm/hr 0.00 in0.0 mm
01:00 AM 53.6°F12.0°C 50.7°F10.4°C 90% 1.0 mph E1.6 kmh E 4.5 mph7.2 kmh 30.11 in1019.6 mb 0.00 in0.0 mm 0.00 in/hr0.0 mm/hr 0.00 in0.0 mm
12:45 AM 53.6°F12.0°C 49.8°F9.9°C 87% 0.1 mph WSW0.2 kmh WSW 1.6 mph2.6 kmh 30.11 in1019.6 mb 0.00 in0.0 mm 0.00 in/hr0.0 mm/hr 0.00 in0.0 mm
12:30 AM 54.0°F12.2°C 50.2°F10.1°C 87% 1.1 mph E1.8 kmh E 4.5 mph7.2 kmh 30.12 in1020.0 mb 0.00 in0.0 mm 0.00 in/hr0.0 mm/hr 0.00 in0.0 mm
12:15 AM 54.1°F12.3°C 50.1°F10.1°C 86% 1.0 mph ESE1.6 kmh ESE 3.8 mph6.1 kmh 30.12 in1020.0 mb 0.00 in0.0 mm 0.00 in/hr0.0 mm/hr 0.00 in0.0 mm
12:00 AM 54.1°F12.3°C 49.7°F9.8°C 85% 0.5 mph NE0.8 kmh NE 3.1 mph5.0 kmh 30.12 in1020.0 mb 0.00 in0.0 mm 0.00 in/hr0.0 mm/hr 0.00 in0.0 mm